createdAt,value
2019-03-30T00:00:08.289Z,99.90
2019-03-30T00:00:49.198Z,99.90
2019-03-30T00:01:24.510Z,99.90
2019-03-30T00:01:57.698Z,99.90
2019-03-30T00:02:30.788Z,99.90
2019-03-30T00:03:04.330Z,99.90
2019-03-30T00:03:37.405Z,99.90
2019-03-30T00:04:10.572Z,99.90
2019-03-30T00:04:43.670Z,99.90
2019-03-30T00:05:17.068Z,99.90
2019-03-30T00:05:50.138Z,99.90
2019-03-30T00:06:23.227Z,99.90
2019-03-30T00:06:57.976Z,99.90
2019-03-30T00:07:31.514Z,99.90
2019-03-30T00:08:05.314Z,99.90
2019-03-30T00:08:38.562Z,99.90
2019-03-30T00:09:11.859Z,99.90
2019-03-30T00:09:44.935Z,99.90
2019-03-30T00:10:18.002Z,99.90
2019-03-30T00:10:51.494Z,99.90
2019-03-30T00:11:24.944Z,99.90
2019-03-30T00:11:58.135Z,99.90
2019-03-30T00:12:31.191Z,99.90
2019-03-30T00:13:04.278Z,99.90
2019-03-30T00:13:37.356Z,99.90
2019-03-30T00:14:10.462Z,99.90
2019-03-30T00:14:43.542Z,99.90
2019-03-30T00:15:17.542Z,99.90
2019-03-30T00:15:50.718Z,99.90
2019-03-30T00:16:23.794Z,99.90
2019-03-30T00:16:57.350Z,99.90
2019-03-30T00:17:30.531Z,99.90
2019-03-30T00:18:03.611Z,99.90
2019-03-30T00:18:36.779Z,99.90
2019-03-30T00:19:10.207Z,99.90
2019-03-30T00:19:43.317Z,99.90
2019-03-30T00:20:16.399Z,99.90
2019-03-30T00:20:49.842Z,99.90
2019-03-30T00:21:22.905Z,99.90
2019-03-30T00:21:55.977Z,99.90
2019-03-30T00:22:29.042Z,99.90
2019-03-30T00:23:02.122Z,99.90
2019-03-30T00:23:35.278Z,99.90
2019-03-30T00:24:09.016Z,99.90
2019-03-30T00:24:42.190Z,99.90
2019-03-30T00:25:15.306Z,99.90
2019-03-30T00:25:48.388Z,99.90
2019-03-30T00:26:21.470Z,99.90
2019-03-30T00:26:54.556Z,99.90
2019-03-30T00:27:27.625Z,99.90
2019-03-30T00:28:01.042Z,99.90
2019-03-30T00:28:34.539Z,99.90
2019-03-30T00:29:07.612Z,99.90
2019-03-30T00:29:41.443Z,99.90
2019-03-30T00:30:14.839Z,99.90
2019-03-30T00:30:47.946Z,99.90
2019-03-30T00:31:21.017Z,99.90
2019-03-30T00:31:54.117Z,99.90
2019-03-30T00:32:27.189Z,99.90
2019-03-30T00:33:00.579Z,99.90
2019-03-30T00:33:33.646Z,99.90
2019-03-30T00:34:06.725Z,99.90
2019-03-30T00:34:39.814Z,99.90
2019-03-30T00:35:12.894Z,99.90
2019-03-30T00:35:45.971Z,99.90
2019-03-30T00:36:19.087Z,99.90
2019-03-30T00:36:52.186Z,99.90
2019-03-30T00:37:25.291Z,99.90
2019-03-30T00:37:58.358Z,99.90
2019-03-30T00:38:31.450Z,99.90
2019-03-30T00:39:06.442Z,99.90
2019-03-30T00:39:39.531Z,99.90
2019-03-30T00:40:12.822Z,99.90
2019-03-30T00:40:45.891Z,99.90
2019-03-30T00:41:18.975Z,99.90
2019-03-30T00:41:52.567Z,99.90
2019-03-30T00:42:25.783Z,99.90
2019-03-30T00:42:59.206Z,99.90
2019-03-30T00:43:32.295Z,99.90
2019-03-30T00:44:05.367Z,99.90
2019-03-30T00:44:38.529Z,99.90
2019-03-30T00:45:13.411Z,99.90
2019-03-30T00:45:46.490Z,99.90
2019-03-30T00:46:19.573Z,99.90
2019-03-30T00:46:52.746Z,99.90
2019-03-30T00:47:26.158Z,99.90
2019-03-30T00:47:59.518Z,99.90
2019-03-30T00:48:32.595Z,99.90
2019-03-30T00:49:05.682Z,99.90
2019-03-30T00:49:49.132Z,99.90
2019-03-30T00:50:14.011Z,99.90
2019-03-30T00:50:48.212Z,99.90
2019-03-30T00:51:21.782Z,99.90
2019-03-30T00:51:55.251Z,99.90
2019-03-30T00:52:28.326Z,99.90
2019-03-30T00:53:01.724Z,99.90
2019-03-30T00:53:34.811Z,99.90
2019-03-30T00:54:08.357Z,99.90
2019-03-30T00:54:41.438Z,99.90
2019-03-30T00:55:14.510Z,99.90
2019-03-30T00:55:47.929Z,99.90
2019-03-30T00:56:21.003Z,99.90
2019-03-30T00:56:54.383Z,99.90
2019-03-30T00:57:27.446Z,99.90
2019-03-30T00:58:00.523Z,99.90
2019-03-30T00:58:33.645Z,99.90
2019-03-30T00:59:07.403Z,99.90
2019-03-30T00:59:40.818Z,99.90
2019-03-30T01:00:16.210Z,99.90
2019-03-30T01:00:49.332Z,99.90
2019-03-30T01:01:22.387Z,99.90
2019-03-30T01:01:55.455Z,99.90
2019-03-30T01:02:28.927Z,99.90
2019-03-30T01:03:02.007Z,99.90
2019-03-30T01:03:35.930Z,99.90
2019-03-30T01:04:09.051Z,99.90
2019-03-30T01:04:42.141Z,99.90
2019-03-30T01:05:15.619Z,99.90
2019-03-30T01:05:48.702Z,99.90
2019-03-30T01:06:21.778Z,99.90
2019-03-30T01:06:54.862Z,99.90
2019-03-30T01:07:28.645Z,99.90
2019-03-30T01:08:02.041Z,99.90
2019-03-30T01:08:35.113Z,99.90
2019-03-30T01:09:09.066Z,99.90
2019-03-30T01:09:42.167Z,99.90
2019-03-30T01:10:15.564Z,99.90
2019-03-30T01:10:48.645Z,99.90
2019-03-30T01:11:22.114Z,99.90
2019-03-30T01:11:55.195Z,99.90
2019-03-30T01:12:30.637Z,99.90
2019-03-30T01:13:04.185Z,99.90
2019-03-30T01:13:37.282Z,99.90
2019-03-30T01:14:10.486Z,99.90
2019-03-30T01:14:43.567Z,99.90
2019-03-30T01:15:16.765Z,99.90
2019-03-30T01:15:49.826Z,99.90
2019-03-30T01:16:23.699Z,99.90
2019-03-30T01:16:56.771Z,99.90
2019-03-30T01:17:29.836Z,99.90
2019-03-30T01:18:02.914Z,99.90
2019-03-30T01:18:35.991Z,99.90
2019-03-30T01:19:09.062Z,99.90
2019-03-30T01:19:42.140Z,99.90
2019-03-30T01:20:15.195Z,99.90
2019-03-30T01:20:48.311Z,99.90
2019-03-30T01:21:22.089Z,99.90
2019-03-30T01:21:56.354Z,99.90
2019-03-30T01:22:29.563Z,99.90
2019-03-30T01:23:02.646Z,99.90
2019-03-30T01:23:35.739Z,99.90
2019-03-30T01:24:08.802Z,99.90
2019-03-30T01:24:41.877Z,99.90
2019-03-30T01:25:14.962Z,99.90
2019-03-30T01:25:48.046Z,99.90
2019-03-30T01:26:21.519Z,99.90
2019-03-30T01:26:55.046Z,99.90
2019-03-30T01:27:28.126Z,99.90
2019-03-30T01:28:01.339Z,99.90
2019-03-30T01:28:34.423Z,99.90
2019-03-30T01:29:07.815Z,99.90
2019-03-30T01:29:40.890Z,99.90
2019-03-30T01:30:22.973Z,99.90
2019-03-30T01:30:48.873Z,99.90
2019-03-30T01:31:22.367Z,99.90
2019-03-30T01:31:55.469Z,99.90
2019-03-30T01:32:28.980Z,99.90
2019-03-30T01:33:02.043Z,99.90
2019-03-30T01:33:35.483Z,99.90
2019-03-30T01:34:08.573Z,99.90
2019-03-30T01:34:41.644Z,99.90
2019-03-30T01:35:15.235Z,99.90
2019-03-30T01:35:48.438Z,99.90
2019-03-30T01:36:21.531Z,99.90
2019-03-30T01:36:54.620Z,99.90
2019-03-30T01:37:27.753Z,99.90
2019-03-30T01:38:01.306Z,99.90
2019-03-30T01:38:34.754Z,99.90
2019-03-30T01:39:08.982Z,99.90
2019-03-30T01:39:42.489Z,99.90
2019-03-30T01:40:15.575Z,99.90
2019-03-30T01:40:48.667Z,99.90
2019-03-30T01:41:22.194Z,99.90
2019-03-30T01:41:55.281Z,99.90
2019-03-30T01:42:30.818Z,99.90
2019-03-30T01:43:03.997Z,99.90
2019-03-30T01:43:37.444Z,99.90
2019-03-30T01:44:11.654Z,99.90
2019-03-30T01:44:44.838Z,99.90
2019-03-30T01:45:17.925Z,99.90
2019-03-30T01:45:51.423Z,99.90
2019-03-30T01:46:24.511Z,99.90
2019-03-30T01:46:57.582Z,99.90
2019-03-30T01:47:30.661Z,99.90
2019-03-30T01:48:03.982Z,99.90
2019-03-30T01:48:37.054Z,99.90
2019-03-30T01:49:10.139Z,99.90
2019-03-30T01:49:43.227Z,99.90
2019-03-30T01:50:17.986Z,99.90
2019-03-30T01:50:51.274Z,99.90
2019-03-30T01:51:24.345Z,99.90
2019-03-30T01:51:57.426Z,99.90
2019-03-30T01:52:30.519Z,99.90
2019-03-30T01:53:03.598Z,99.90
2019-03-30T01:53:36.693Z,99.90
2019-03-30T01:54:09.787Z,99.90
2019-03-30T01:54:42.875Z,99.90
2019-03-30T01:55:15.950Z,99.90
2019-03-30T01:55:49.235Z,99.90
2019-03-30T01:56:22.643Z,99.90
2019-03-30T01:56:56.529Z,99.90
2019-03-30T01:57:29.847Z,99.90
2019-03-30T01:58:02.949Z,99.90
2019-03-30T01:58:35.997Z,99.90
2019-03-30T01:59:09.123Z,99.90
2019-03-30T01:59:42.193Z,99.90
2019-03-30T02:00:16.171Z,99.90
2019-03-30T02:00:49.254Z,99.90
2019-03-30T02:01:22.729Z,99.90
2019-03-30T02:01:55.807Z,99.90
2019-03-30T02:02:28.885Z,99.90
2019-03-30T02:03:02.062Z,99.90
2019-03-30T02:03:35.123Z,99.90
2019-03-30T02:04:08.208Z,99.90
2019-03-30T02:04:41.944Z,99.90
2019-03-30T02:05:15.101Z,99.90
2019-03-30T02:05:48.563Z,99.90
2019-03-30T02:06:22.044Z,99.90
2019-03-30T02:06:55.118Z,99.90
2019-03-30T02:07:28.616Z,99.90
2019-03-30T02:08:02.134Z,99.90
2019-03-30T02:08:35.518Z,99.90
2019-03-30T02:09:08.594Z,99.90
2019-03-30T02:09:42.047Z,99.90
2019-03-30T02:10:25.607Z,99.90
2019-03-30T02:10:58.887Z,99.90
2019-03-30T02:11:31.953Z,99.90
2019-03-30T02:12:05.038Z,99.90
2019-03-30T02:12:38.127Z,99.90
2019-03-30T02:13:11.924Z,99.90
2019-03-30T02:13:45.002Z,99.90
2019-03-30T02:14:18.493Z,99.90
2019-03-30T02:14:51.591Z,99.90
2019-03-30T02:15:24.661Z,99.90
2019-03-30T02:15:57.867Z,99.90
2019-03-30T02:16:31.859Z,99.90
2019-03-30T02:17:04.946Z,99.90
2019-03-30T02:17:38.310Z,99.90
2019-03-30T02:18:11.806Z,99.90
2019-03-30T02:18:44.894Z,99.90
2019-03-30T02:19:18.059Z,99.90
2019-03-30T02:19:51.234Z,99.90
2019-03-30T02:20:36.928Z,99.90
2019-03-30T02:21:10.419Z,99.90
2019-03-30T02:21:43.504Z,99.90
2019-03-30T02:22:16.704Z,99.90
2019-03-30T02:22:49.761Z,99.90
2019-03-30T02:23:22.850Z,99.90
2019-03-30T02:23:55.923Z,99.90
2019-03-30T02:24:29.278Z,99.90
2019-03-30T02:25:02.358Z,99.90
2019-03-30T02:25:35.546Z,99.90
2019-03-30T02:26:08.618Z,99.90
2019-03-30T02:26:41.736Z,99.90
2019-03-30T02:27:14.819Z,99.90
2019-03-30T02:27:47.882Z,99.90
2019-03-30T02:28:21.062Z,99.90
2019-03-30T02:28:54.487Z,99.90
2019-03-30T02:29:27.874Z,99.90
2019-03-30T02:30:01.267Z,99.90
2019-03-30T02:30:34.630Z,99.90
2019-03-30T02:31:07.782Z,99.90
2019-03-30T02:31:40.800Z,99.90
2019-03-30T02:32:13.919Z,99.90
2019-03-30T02:32:46.994Z,99.90
2019-03-30T02:33:20.090Z,99.90
2019-03-30T02:33:53.159Z,99.90
2019-03-30T02:34:26.992Z,99.90
2019-03-30T02:35:00.982Z,99.90
2019-03-30T02:35:34.454Z,99.90
2019-03-30T02:36:07.536Z,99.90
2019-03-30T02:36:40.754Z,99.90
2019-03-30T02:37:14.211Z,99.90
2019-03-30T02:37:48.198Z,99.90
2019-03-30T02:38:21.271Z,99.90
2019-03-30T02:38:54.359Z,99.90
2019-03-30T02:39:27.821Z,99.90
2019-03-30T02:40:00.910Z,99.90
2019-03-30T02:40:33.986Z,99.90
2019-03-30T02:41:07.156Z,99.90
2019-03-30T02:41:40.599Z,99.90
2019-03-30T02:42:13.679Z,99.90
2019-03-30T02:42:46.764Z,99.90
2019-03-30T02:43:19.878Z,99.90
2019-03-30T02:43:53.262Z,99.90
2019-03-30T02:44:26.658Z,99.90
2019-03-30T02:45:00.235Z,99.90
2019-03-30T02:45:33.599Z,99.90
2019-03-30T02:46:07.045Z,99.90
2019-03-30T02:46:40.489Z,99.90
2019-03-30T02:47:13.567Z,99.90
2019-03-30T02:47:46.995Z,99.90
2019-03-30T02:48:20.423Z,99.90
2019-03-30T02:48:53.521Z,99.90
2019-03-30T02:49:26.597Z,99.90
2019-03-30T02:50:00.454Z,99.90
2019-03-30T02:50:48.649Z,99.90
2019-03-30T02:51:08.737Z,99.90
2019-03-30T02:51:42.155Z,99.90
2019-03-30T02:52:15.641Z,99.90
2019-03-30T02:52:48.698Z,99.90
2019-03-30T02:53:21.810Z,99.90
2019-03-30T02:53:55.211Z,99.90
2019-03-30T02:54:28.311Z,99.90
2019-03-30T02:55:01.393Z,99.90
2019-03-30T02:55:34.859Z,99.90
2019-03-30T02:56:07.939Z,99.90
2019-03-30T02:56:41.127Z,99.90
2019-03-30T02:57:14.664Z,99.90
2019-03-30T02:57:48.038Z,99.90
2019-03-30T02:58:21.832Z,99.90
2019-03-30T02:58:54.916Z,99.90
2019-03-30T02:59:27.981Z,99.90
2019-03-30T03:00:01.094Z,99.90
2019-03-30T03:00:34.170Z,99.90
2019-03-30T03:01:07.243Z,99.90
2019-03-30T03:01:40.687Z,99.90
2019-03-30T03:02:13.768Z,99.90
2019-03-30T03:02:47.373Z,99.90
2019-03-30T03:03:20.424Z,99.90
2019-03-30T03:03:53.508Z,99.90
2019-03-30T03:04:26.580Z,99.90
2019-03-30T03:04:59.666Z,99.90
2019-03-30T03:05:33.146Z,99.90
2019-03-30T03:06:06.228Z,99.90
2019-03-30T03:06:39.309Z,99.90
2019-03-30T03:07:12.378Z,99.90
2019-03-30T03:07:45.454Z,99.90
2019-03-30T03:08:18.522Z,99.90
2019-03-30T03:08:51.602Z,99.90
2019-03-30T03:09:24.682Z,99.90
2019-03-30T03:09:57.767Z,99.90
2019-03-30T03:10:30.852Z,99.90
2019-03-30T03:11:03.967Z,99.90
2019-03-30T03:11:37.494Z,99.90
2019-03-30T03:12:10.587Z,99.90
2019-03-30T03:12:43.851Z,99.90
2019-03-30T03:13:16.964Z,99.90
2019-03-30T03:13:50.043Z,99.90
2019-03-30T03:14:23.132Z,99.90
2019-03-30T03:14:56.197Z,99.90
2019-03-30T03:15:29.266Z,99.90
2019-03-30T03:16:02.339Z,99.90
2019-03-30T03:16:35.743Z,99.90
2019-03-30T03:17:09.225Z,99.90
2019-03-30T03:17:42.314Z,99.90
2019-03-30T03:18:15.382Z,99.90
2019-03-30T03:18:48.484Z,99.90
2019-03-30T03:19:21.546Z,99.90
2019-03-30T03:19:54.996Z,99.90
2019-03-30T03:20:28.431Z,99.90
2019-03-30T03:21:08.189Z,99.90
2019-03-30T03:21:36.361Z,99.90
2019-03-30T03:22:10.020Z,99.90
2019-03-30T03:22:43.195Z,99.90
2019-03-30T03:23:16.292Z,99.90
2019-03-30T03:24:08.599Z,99.90
2019-03-30T03:24:41.760Z,99.90
2019-03-30T03:25:14.820Z,99.90
2019-03-30T03:25:47.899Z,99.90
2019-03-30T03:26:20.976Z,99.90
2019-03-30T03:26:54.393Z,99.90
2019-03-30T03:27:27.527Z,99.90
2019-03-30T03:28:00.592Z,99.90
2019-03-30T03:28:34.086Z,99.90
2019-03-30T03:29:07.516Z,99.90
2019-03-30T03:29:43.691Z,99.90
2019-03-30T03:30:16.883Z,99.90
2019-03-30T03:30:49.950Z,99.90
2019-03-30T03:31:23.065Z,99.90
2019-03-30T03:32:36.458Z,99.90
2019-03-30T03:33:10.296Z,99.90
2019-03-30T03:33:43.474Z,99.90
2019-03-30T03:34:17.087Z,99.90
2019-03-30T03:34:50.192Z,99.90
2019-03-30T03:35:23.674Z,99.90
2019-03-30T03:35:56.750Z,99.90
2019-03-30T03:36:29.835Z,99.90
2019-03-30T03:37:02.913Z,99.90
2019-03-30T03:37:44.530Z,99.90
2019-03-30T03:38:11.241Z,99.90
2019-03-30T03:38:44.341Z,99.90
2019-03-30T03:39:17.421Z,99.90
2019-03-30T03:39:50.507Z,99.90
2019-03-30T03:40:23.597Z,99.90
2019-03-30T03:40:56.635Z,99.90
2019-03-30T03:41:29.713Z,99.90
2019-03-30T03:42:02.785Z,99.90
2019-03-30T03:42:35.895Z,99.90
2019-03-30T03:43:09.001Z,99.90
2019-03-30T03:43:42.837Z,99.90
2019-03-30T03:44:15.907Z,99.90
2019-03-30T03:44:48.971Z,99.90
2019-03-30T03:45:22.782Z,99.90
2019-03-30T03:45:56.316Z,99.90
2019-03-30T03:46:29.373Z,99.90
2019-03-30T03:47:02.464Z,99.90
2019-03-30T03:47:35.905Z,99.90
2019-03-30T03:48:09.283Z,99.90
2019-03-30T03:48:42.739Z,99.90
2019-03-30T03:49:15.859Z,99.90
2019-03-30T03:49:49.383Z,99.90
2019-03-30T03:50:42.181Z,99.90
2019-03-30T03:51:25.763Z,99.90
2019-03-30T03:51:52.491Z,99.90
2019-03-30T03:52:25.671Z,99.90
2019-03-30T03:52:58.735Z,99.90
2019-03-30T03:53:33.555Z,99.90
2019-03-30T03:54:06.733Z,99.90
2019-03-30T03:54:40.341Z,99.90
2019-03-30T03:55:13.420Z,99.90
2019-03-30T03:55:47.231Z,99.90
2019-03-30T03:56:22.065Z,99.90
2019-03-30T03:56:57.062Z,99.90
2019-03-30T03:57:33.747Z,99.90
2019-03-30T03:58:08.721Z,99.90
2019-03-30T03:58:44.728Z,99.90
2019-03-30T03:59:19.215Z,99.90
2019-03-30T03:59:55.215Z,99.90
2019-03-30T04:00:28.695Z,99.90
2019-03-30T04:01:02.796Z,99.90
2019-03-30T04:01:36.854Z,99.90
2019-03-30T04:02:11.243Z,99.90
2019-03-30T04:02:45.059Z,99.90
2019-03-30T04:03:18.272Z,99.90
2019-03-30T04:03:53.918Z,99.90
2019-03-30T04:04:27.143Z,99.90
2019-03-30T04:05:02.051Z,99.90
2019-03-30T04:05:38.320Z,99.90
2019-03-30T04:06:11.808Z,99.90
2019-03-30T04:06:46.725Z,99.90
2019-03-30T04:07:22.642Z,99.90
2019-03-30T04:07:57.910Z,99.90
2019-03-30T04:08:31.763Z,99.90
2019-03-30T04:09:06.213Z,99.90
2019-03-30T04:09:43.710Z,99.90
2019-03-30T04:10:16.972Z,99.90
2019-03-30T04:10:51.779Z,99.90
2019-03-30T04:11:27.509Z,99.90
2019-03-30T04:12:02.383Z,99.90
2019-03-30T04:12:37.167Z,99.90
2019-03-30T04:13:13.359Z,99.90
2019-03-30T04:13:48.455Z,99.90
2019-03-30T04:14:25.736Z,99.90
2019-03-30T04:15:02.611Z,99.90
2019-03-30T04:15:35.725Z,99.90
2019-03-30T04:16:08.803Z,99.90
2019-03-30T04:16:41.900Z,99.90
2019-03-30T04:17:15.074Z,99.90
2019-03-30T04:17:48.144Z,99.90
2019-03-30T04:18:21.569Z,99.90
2019-03-30T04:18:54.648Z,99.90
2019-03-30T04:19:27.714Z,99.90
2019-03-30T04:20:00.817Z,99.90
2019-03-30T04:20:33.890Z,99.90
2019-03-30T04:21:06.981Z,99.90
2019-03-30T04:21:44.367Z,99.90
2019-03-30T04:22:15.315Z,99.90
2019-03-30T04:22:48.366Z,99.90
2019-03-30T04:23:21.442Z,99.90
2019-03-30T04:23:54.594Z,99.90
2019-03-30T04:24:28.059Z,99.90
2019-03-30T04:25:01.133Z,99.90
2019-03-30T04:25:34.762Z,99.90
2019-03-30T04:26:07.897Z,99.90
2019-03-30T04:26:40.993Z,99.90
2019-03-30T04:27:14.074Z,99.90
2019-03-30T04:27:47.155Z,99.90
2019-03-30T04:28:20.225Z,99.90
2019-03-30T04:28:53.631Z,99.90
2019-03-30T04:29:27.059Z,99.90
2019-03-30T04:30:00.450Z,99.90
2019-03-30T04:30:33.805Z,99.90
2019-03-30T04:31:06.827Z,99.90
2019-03-30T04:31:39.893Z,99.90
2019-03-30T04:32:12.995Z,99.90
2019-03-30T04:32:46.066Z,99.90
2019-03-30T04:33:19.143Z,99.90
2019-03-30T04:33:52.233Z,99.90
2019-03-30T04:34:25.395Z,99.90
2019-03-30T04:34:58.483Z,99.90
2019-03-30T04:35:31.566Z,99.90
2019-03-30T04:36:05.414Z,99.90
2019-03-30T04:36:38.942Z,99.90
2019-03-30T04:37:12.019Z,99.90
2019-03-30T04:37:45.134Z,99.90
2019-03-30T04:38:18.218Z,99.90
2019-03-30T04:38:51.751Z,99.90
2019-03-30T04:39:24.922Z,99.90
2019-03-30T04:39:58.367Z,99.90
2019-03-30T04:40:31.465Z,99.90
2019-03-30T04:41:04.547Z,99.90
2019-03-30T04:41:37.634Z,99.90
2019-03-30T04:42:10.702Z,99.90
2019-03-30T04:42:43.834Z,99.90
2019-03-30T04:43:17.361Z,99.90
2019-03-30T04:43:50.422Z,99.90
2019-03-30T04:44:23.990Z,99.90
2019-03-30T04:44:57.439Z,99.90
2019-03-30T04:45:30.559Z,99.90
2019-03-30T04:46:03.627Z,99.90
2019-03-30T04:46:37.068Z,99.90
2019-03-30T04:47:10.563Z,99.90
2019-03-30T04:47:44.054Z,99.90
2019-03-30T04:48:17.151Z,99.90
2019-03-30T04:48:52.177Z,99.90
2019-03-30T04:49:25.156Z,99.90
2019-03-30T04:49:58.978Z,99.90
2019-03-30T04:50:32.070Z,99.90
2019-03-30T04:51:05.117Z,99.90
2019-03-30T04:51:38.189Z,99.90
2019-03-30T04:52:11.258Z,99.90
2019-03-30T04:52:45.039Z,99.90
2019-03-30T04:53:18.475Z,99.90
2019-03-30T04:53:51.564Z,99.90
2019-03-30T04:54:25.498Z,99.90
2019-03-30T04:54:58.587Z,99.90
2019-03-30T04:55:32.110Z,99.90
2019-03-30T04:56:05.191Z,99.90
2019-03-30T04:56:38.280Z,99.90
2019-03-30T04:57:11.379Z,99.90
2019-03-30T04:57:44.468Z,99.90
2019-03-30T04:58:18.352Z,99.90
2019-03-30T04:58:51.743Z,99.90
2019-03-30T04:59:25.118Z,99.90
2019-03-30T04:59:58.227Z,99.90
2019-03-30T05:00:31.302Z,99.90
2019-03-30T05:01:04.373Z,99.90
2019-03-30T05:01:37.450Z,99.90
2019-03-30T05:02:10.529Z,99.90
2019-03-30T05:02:43.603Z,99.90
2019-03-30T05:03:17.098Z,99.90
2019-03-30T05:03:50.491Z,99.90
2019-03-30T05:04:23.928Z,99.90
2019-03-30T05:04:57.305Z,99.90
2019-03-30T05:05:31.252Z,99.90
2019-03-30T05:06:04.319Z,99.90
2019-03-30T05:06:37.396Z,99.90
2019-03-30T05:07:10.835Z,99.90
2019-03-30T05:07:43.903Z,99.90
2019-03-30T05:08:16.969Z,99.90
2019-03-30T05:08:50.051Z,99.90
2019-03-30T05:09:23.451Z,99.90
2019-03-30T05:09:56.525Z,99.90
2019-03-30T05:10:30.404Z,99.90
2019-03-30T05:11:03.501Z,99.90
2019-03-30T05:11:37.453Z,99.90
2019-03-30T05:12:10.962Z,99.90
2019-03-30T05:12:44.694Z,99.90
2019-03-30T05:13:17.975Z,99.90
2019-03-30T05:13:51.050Z,99.90
2019-03-30T05:14:24.321Z,99.90
2019-03-30T05:14:58.204Z,99.90
2019-03-30T05:15:31.748Z,99.90
2019-03-30T05:16:04.822Z,99.90
2019-03-30T05:16:37.934Z,99.90
2019-03-30T05:17:11.322Z,99.90
2019-03-30T05:17:47.909Z,99.90
2019-03-30T05:18:19.296Z,99.90
2019-03-30T05:18:52.370Z,99.90
2019-03-30T05:19:26.208Z,99.90
2019-03-30T05:19:59.563Z,99.90
2019-03-30T05:20:32.645Z,99.90
2019-03-30T05:21:06.530Z,99.90
2019-03-30T05:21:39.591Z,99.90
2019-03-30T05:22:16.482Z,99.90
2019-03-30T05:22:51.211Z,99.90
2019-03-30T05:23:23.546Z,99.90
2019-03-30T05:23:56.788Z,99.90
2019-03-30T05:24:31.142Z,99.90
2019-03-30T05:25:04.339Z,99.90
2019-03-30T05:25:37.928Z,99.90
2019-03-30T05:26:10.993Z,99.90
2019-03-30T05:26:44.497Z,99.90
2019-03-30T05:27:17.934Z,99.90
2019-03-30T05:27:51.025Z,99.90
2019-03-30T05:28:24.399Z,99.90
2019-03-30T05:28:57.470Z,99.90
2019-03-30T05:29:30.546Z,99.90
2019-03-30T05:30:04.646Z,99.90
2019-03-30T05:30:38.478Z,99.90
2019-03-30T05:31:12.587Z,99.90
2019-03-30T05:31:45.668Z,99.90
2019-03-30T05:32:19.099Z,99.90
2019-03-30T05:33:05.059Z,99.90
2019-03-30T05:33:27.087Z,99.90
2019-03-30T05:34:00.167Z,99.90
2019-03-30T05:34:33.259Z,99.90
2019-03-30T05:35:06.844Z,99.90
2019-03-30T05:35:39.913Z,99.90
2019-03-30T05:36:13.134Z,99.90
2019-03-30T05:36:46.208Z,99.90
2019-03-30T05:37:19.778Z,99.90
2019-03-30T05:37:52.890Z,99.90
2019-03-30T05:38:26.019Z,99.90
2019-03-30T05:38:59.435Z,99.90
2019-03-30T05:39:32.870Z,99.90
2019-03-30T05:40:06.318Z,99.90
2019-03-30T05:40:39.826Z,99.90
2019-03-30T05:41:12.909Z,99.90
2019-03-30T05:41:45.976Z,99.90
2019-03-30T05:42:19.038Z,99.90
2019-03-30T05:42:52.574Z,99.90
2019-03-30T05:43:25.661Z,99.90
2019-03-30T05:43:59.260Z,99.90
2019-03-30T05:44:32.798Z,99.90
2019-03-30T05:45:06.726Z,99.90
2019-03-30T05:45:40.173Z,99.90
2019-03-30T05:46:13.572Z,99.90
2019-03-30T05:46:46.632Z,99.90
2019-03-30T05:47:19.709Z,99.90
2019-03-30T05:47:52.791Z,99.90
2019-03-30T05:48:25.946Z,99.90
2019-03-30T05:48:59.023Z,99.90
2019-03-30T05:49:32.524Z,99.90
2019-03-30T05:50:06.121Z,99.90
2019-03-30T05:50:39.199Z,99.90
2019-03-30T05:51:12.576Z,99.90
2019-03-30T05:51:45.663Z,99.90
2019-03-30T05:52:26.449Z,99.90
2019-03-30T05:52:53.606Z,99.90
2019-03-30T05:53:26.698Z,99.90
2019-03-30T05:53:59.775Z,99.90
2019-03-30T05:54:32.854Z,99.90
2019-03-30T05:55:05.955Z,99.90
2019-03-30T05:55:39.046Z,99.90
2019-03-30T05:56:12.511Z,99.90
2019-03-30T05:56:45.855Z,99.50
2019-03-30T05:57:19.726Z,99.10
2019-03-30T05:57:52.799Z,98.50
2019-03-30T05:58:25.873Z,98.20
2019-03-30T05:58:58.953Z,98.00
2019-03-30T05:59:32.130Z,97.60
2019-03-30T06:00:06.518Z,97.30
2019-03-30T06:00:39.637Z,97.10
2019-03-30T06:01:12.714Z,97.00
2019-03-30T06:01:45.788Z,96.80
2019-03-30T06:02:19.254Z,96.70
2019-03-30T06:02:52.471Z,96.60
2019-03-30T06:03:25.866Z,96.30
2019-03-30T06:03:58.947Z,96.30
2019-03-30T06:04:32.028Z,96.10
2019-03-30T06:05:05.156Z,95.80
2019-03-30T06:05:38.194Z,95.60
2019-03-30T06:06:11.314Z,95.50
2019-03-30T06:06:44.386Z,95.50
2019-03-30T06:07:17.482Z,95.70
2019-03-30T06:07:51.222Z,96.00
2019-03-30T06:08:24.512Z,96.20
2019-03-30T06:08:57.950Z,96.20
2019-03-30T06:09:31.438Z,96.60
2019-03-30T06:10:04.975Z,96.50
2019-03-30T06:10:39.004Z,96.70
2019-03-30T06:11:12.237Z,96.80
2019-03-30T06:11:45.345Z,96.80
2019-03-30T06:12:18.413Z,96.90
2019-03-30T06:12:52.399Z,96.70
2019-03-30T06:13:26.046Z,96.50
2019-03-30T06:13:59.359Z,96.50
2019-03-30T06:14:33.213Z,96.40
2019-03-30T06:15:07.207Z,96.30
2019-03-30T06:15:40.286Z,96.30
2019-03-30T06:16:13.358Z,96.20
2019-03-30T06:16:46.431Z,96.20
2019-03-30T06:17:20.232Z,96.30
2019-03-30T06:17:53.321Z,96.30
2019-03-30T06:18:26.926Z,96.40
2019-03-30T06:19:00.296Z,96.40
2019-03-30T06:19:33.386Z,96.40
2019-03-30T06:20:07.287Z,96.40
2019-03-30T06:20:40.362Z,96.50
2019-03-30T06:21:13.799Z,96.60
2019-03-30T06:21:46.877Z,96.60
2019-03-30T06:22:19.962Z,96.80
2019-03-30T06:22:53.545Z,97.00
2019-03-30T06:23:26.843Z,97.10
2019-03-30T06:24:01.674Z,97.30
2019-03-30T06:24:36.257Z,97.40
2019-03-30T06:25:09.344Z,97.70
2019-03-30T06:25:42.566Z,97.50
2019-03-30T06:26:15.651Z,97.80
2019-03-30T06:26:48.839Z,97.90
2019-03-30T06:27:21.997Z,97.90
2019-03-30T06:27:55.583Z,98.00
2019-03-30T06:28:29.839Z,98.10
2019-03-30T06:29:02.918Z,98.30
2019-03-30T06:29:36.001Z,98.70
2019-03-30T06:30:28.517Z,98.50
2019-03-30T06:31:02.402Z,98.40
2019-03-30T06:31:35.542Z,98.40
2019-03-30T06:32:08.861Z,98.60
2019-03-30T06:32:42.274Z,98.90
2019-03-30T06:33:15.484Z,99.10
2019-03-30T06:33:48.594Z,99.20
2019-03-30T06:34:21.670Z,99.30
2019-03-30T06:34:54.750Z,99.30
2019-03-30T06:35:27.847Z,99.40
2019-03-30T06:36:01.317Z,99.60
2019-03-30T06:36:34.690Z,99.80
2019-03-30T06:37:07.763Z,99.90
2019-03-30T06:37:40.851Z,99.90
2019-03-30T06:38:13.934Z,99.90
2019-03-30T06:38:47.019Z,99.90
2019-03-30T06:39:20.179Z,99.90
2019-03-30T06:39:53.255Z,99.90
2019-03-30T06:40:26.810Z,99.90
2019-03-30T06:41:00.732Z,99.90
2019-03-30T06:41:33.860Z,99.90
2019-03-30T06:42:06.890Z,99.90
2019-03-30T06:42:40.259Z,99.90
2019-03-30T06:43:13.642Z,99.90
2019-03-30T06:43:46.727Z,99.90
2019-03-30T06:44:20.367Z,99.90
2019-03-30T06:44:55.242Z,99.90
2019-03-30T06:45:28.820Z,99.90
2019-03-30T06:46:01.911Z,99.90
2019-03-30T06:46:35.542Z,99.90
2019-03-30T06:47:08.613Z,99.90
2019-03-30T06:47:42.030Z,99.90
2019-03-30T06:48:15.200Z,99.90
2019-03-30T06:48:48.598Z,99.90
2019-03-30T06:49:21.672Z,99.90
2019-03-30T06:49:54.891Z,99.90
2019-03-30T06:50:28.809Z,99.90
2019-03-30T06:51:02.278Z,99.90
2019-03-30T06:51:35.355Z,99.90
2019-03-30T06:52:09.203Z,99.90
2019-03-30T06:52:56.392Z,99.90
2019-03-30T06:53:17.469Z,99.90
2019-03-30T06:53:50.834Z,99.90
2019-03-30T06:54:24.112Z,99.90
2019-03-30T06:54:58.663Z,99.90
2019-03-30T06:55:33.820Z,99.90
2019-03-30T06:56:08.604Z,99.90
2019-03-30T06:56:44.075Z,99.90
2019-03-30T06:57:17.676Z,99.90
2019-03-30T06:57:50.961Z,99.90
2019-03-30T06:58:24.043Z,99.90
2019-03-30T06:58:57.303Z,99.90
2019-03-30T06:59:30.647Z,99.90
2019-03-30T07:00:06.710Z,99.90
2019-03-30T07:00:40.102Z,99.90
2019-03-30T07:01:13.220Z,99.90
2019-03-30T07:01:48.627Z,99.90
2019-03-30T07:02:22.234Z,99.90
2019-03-30T07:02:55.515Z,99.90
2019-03-30T07:03:28.684Z,99.90
2019-03-30T07:04:01.751Z,99.90
2019-03-30T07:04:36.142Z,99.90
2019-03-30T07:05:09.522Z,99.90
2019-03-30T07:05:43.388Z,99.90
2019-03-30T07:06:17.798Z,99.90
2019-03-30T07:06:52.265Z,99.90
2019-03-30T07:07:25.766Z,99.90
2019-03-30T07:07:59.876Z,99.90
2019-03-30T07:08:33.740Z,99.90
2019-03-30T07:09:07.566Z,99.90
2019-03-30T07:09:42.454Z,99.90
2019-03-30T07:10:16.359Z,99.90
2019-03-30T07:10:49.878Z,99.90
2019-03-30T07:11:25.303Z,99.90
2019-03-30T07:12:01.531Z,99.90
2019-03-30T07:12:39.856Z,99.90